Date,TemperatureHighF,TemperatureAvgF,TemperatureLowF,DewpointHighF,DewpointAvgF,DewpointLowF,HumidityHigh,HumidityAvg,HumidityLow,PressureMaxIn,PressureMinIn,WindSpeedMaxMPH,WindSpeedAvgMPH,GustSpeedMaxMPH,PrecipitationSumIn
2013-11-1,78.2,62.5,69.8,72.0,44.0,-99.9,98,75,76,30.00,29.76,21,-152,23,0.05
2013-11-2,72.5,50.5,57.5,71.0,23.2,-99.9,97,64,53,29.96,29.75,8,-230,12,0.87
2013-11-3,65.6,48.8,52.2,54.0,23.5,-99.9,88,58,45,30.30,29.95,12,-158,16,0.00
2013-11-4,65.8,48.1,49.6,51.0,23.2,-99.9,82,57,45,30.43,30.29,17,-154,18,0.00
2013-11-5,62.2,46.5,45.2,60.0,27.2,-99.9,96,74,78,30.43,30.31,14,-162,15,0.01
2013-11-6,76.7,53.1,56.9,69.0,29.4,-99.9,97,70,76,30.31,30.08,7,-209,10,0.03
2013-11-7,76.0,57.2,63.4,67.0,38.7,-99.9,98,76,72,30.09,29.94,10,-158,13,0.00
2013-11-8,62.9,45.3,43.1,60.0,20.6,-99.9,95,57,39,30.31,30.04,16,-142,24,0.00
2013-11-9,64.3,47.1,43.5,55.0,25.8,-99.9,95,67,66,30.35,30.24,9,-157,12,0.00
2013-11-10,70.4,48.8,51.3,58.0,24.0,-99.9,97,64,49,30.26,30.14,8,-186,10,0.00
2013-11-11,67.9,46.4,50.3,55.0,22.7,-99.9,98,66,63,30.29,30.16,10,-186,14,0.00
2013-11-12,71.1,48.4,43.9,55.0,20.0,-99.9,99,55,43,30.34,30.00,33,-185,36,0.00
2013-11-13,49.1,34.4,35.2,34.0,4.6,-99.9,83,49,35,30.53,30.34,19,-181,30,0.00
2013-11-14,65.2,40.2,34.5,49.0,14.7,-99.9,95,61,57,30.51,30.33,8,-186,13,0.00
2013-11-15,65.7,46.5,47.7,62.0,23.0,-99.9,100,72,85,30.33,30.15,5,-218,7,0.01
2013-11-16,76.9,46.0,58.3,66.0,12.0,-99.9,99,60,66,30.22,30.14,5,-308,8,0.00
2013-11-17,76.9,57.6,57.1,72.0,42.0,-99.9,100,82,84,30.19,30.00,5,-145,8,0.03
2013-11-18,81.1,53.9,68.9,72.0,23.9,-99.9,99,64,74,30.00,29.83,10,-271,12,0.00
2013-11-19,63.3,46.2,48.3,49.0,18.2,-99.9,79,51,43,30.19,29.94,13,-161,20,0.00
2013-11-20,58.7,43.6,47.2,51.0,19.1,-99.9,82,63,74,30.32,30.19,15,-185,20,0.00
2013-11-21,72.1,50.8,52.8,64.0,30.9,-99.9,97,72,75,30.38,30.30,10,-164,16,0.00
2013-11-22,75.1,56.3,59.3,68.0,38.4,-99.9,99,77,76,30.34,30.16,4,-155,6,0.01
2013-11-23,70.0,53.7,58.5,67.0,35.5,-99.9,99,78,84,30.16,30.00,11,-164,16,0.09
2013-11-24,58.2,28.7,34.6,53.0,-14.3,-99.9,84,36,37,30.54,30.10,15,-311,22,0.00
2013-11-25,52.2,37.6,31.9,51.0,15.3,-99.9,94,60,46,30.55,30.27,13,-132,21,0.00
2013-11-26,67.8,29.0,46.5,68.0,-23.0,-99.9,100,46,92,30.25,29.61,5,-514,14,0.83
2013-11-27,57.6,29.2,40.1,55.0,-11.3,-99.9,93,54,82,30.22,29.52,17,-378,26,0.00
2013-11-28,54.3,31.0,33.2,36.0,2.0,-99.9,97,57,44,30.51,30.22,11,-219,16,0.00
2013-11-29,60.3,38.9,34.2,46.0,17.3,-99.9,98,64,53,30.54,30.45,10,-145,14,0.00
2013-11-30,59.0,41.8,37.6,49.0,21.0,-99.9,86,65,62,30.54,30.32,14,-141,14,0.00